createdAt,value
2018-06-23T00:00:55.136Z,13.40
2018-06-23T00:03:07.872Z,13.40
2018-06-23T00:05:12.708Z,13.40
2018-06-23T00:07:17.378Z,13.50
2018-06-23T00:11:26.261Z,13.30
2018-06-23T00:13:31.092Z,13.40
2018-06-23T00:15:35.685Z,13.30
2018-06-23T00:17:41.409Z,13.30
2018-06-23T00:19:46.057Z,13.30
2018-06-23T00:21:50.692Z,13.20
2018-06-23T00:23:55.381Z,13.30
2018-06-23T00:28:09.553Z,13.10
2018-06-23T00:30:14.259Z,13.10
2018-06-23T00:34:23.371Z,13.00
2018-06-23T00:36:28.047Z,13.10
2018-06-23T00:38:32.767Z,13.10
2018-06-23T00:42:41.850Z,12.90
2018-06-23T00:44:46.497Z,12.90
2018-06-23T00:46:51.134Z,12.90
2018-06-23T00:48:55.840Z,13.00
2018-06-23T00:51:00.455Z,12.80
2018-06-23T00:53:05.111Z,12.80
2018-06-23T00:55:11.129Z,12.80
2018-06-23T00:57:15.748Z,12.90
2018-06-23T00:59:38.870Z,12.70
2018-06-23T01:01:43.581Z,12.60
2018-06-23T01:03:48.166Z,12.60
2018-06-23T01:05:52.849Z,12.60
2018-06-23T01:07:57.509Z,12.60
2018-06-23T01:10:02.151Z,12.40
2018-06-23T01:12:07.132Z,12.40
2018-06-23T01:14:11.808Z,12.50
2018-06-23T01:16:16.415Z,12.50
2018-06-23T01:18:21.039Z,12.40
2018-06-23T01:20:25.665Z,12.40
2018-06-23T01:22:30.326Z,12.50
2018-06-23T01:24:34.926Z,12.60
2018-06-23T01:28:43.957Z,12.40
2018-06-23T01:30:48.526Z,12.50
2018-06-23T01:32:53.204Z,12.30
2018-06-23T01:34:57.970Z,12.40
2018-06-23T01:37:02.595Z,12.30
2018-06-23T01:39:11.069Z,12.20
2018-06-23T01:41:15.681Z,12.20
2018-06-23T01:43:20.334Z,12.20
2018-06-23T01:45:24.922Z,12.20
2018-06-23T01:47:29.511Z,12.10
2018-06-23T01:49:34.159Z,12.00
2018-06-23T01:51:38.785Z,12.00
2018-06-23T01:53:43.397Z,11.90
2018-06-23T01:55:48.128Z,11.90
2018-06-23T01:57:52.745Z,11.80
2018-06-23T01:59:57.358Z,11.80
2018-06-23T02:02:01.976Z,11.80
2018-06-23T02:04:06.744Z,11.80
2018-06-23T02:06:11.397Z,11.80
2018-06-23T02:08:16.062Z,11.70
2018-06-23T02:10:20.789Z,11.80
2018-06-23T02:12:25.384Z,11.80
2018-06-23T02:14:35.057Z,11.60
2018-06-23T02:16:44.863Z,11.80
2018-06-23T02:18:54.513Z,11.80
2018-06-23T02:21:04.132Z,11.80
2018-06-23T02:23:13.856Z,11.80
2018-06-23T02:25:23.504Z,11.70
2018-06-23T02:27:33.163Z,11.80
2018-06-23T02:31:49.806Z,11.80
2018-06-23T02:33:59.577Z,11.70
2018-06-23T02:36:04.345Z,11.80
2018-06-23T02:38:09.159Z,11.60
2018-06-23T02:40:13.916Z,11.70
2018-06-23T02:42:18.594Z,11.60
2018-06-23T02:44:23.270Z,11.80
2018-06-23T02:46:28.073Z,11.70
2018-06-23T02:48:32.674Z,11.70
2018-06-23T02:50:37.301Z,11.50
2018-06-23T02:52:41.934Z,11.40
2018-06-23T02:54:46.586Z,11.60
2018-06-23T02:56:51.240Z,11.60
2018-06-23T02:58:55.924Z,11.70
2018-06-23T03:01:00.574Z,11.70
2018-06-23T03:03:05.247Z,11.70
2018-06-23T03:05:09.872Z,11.70
2018-06-23T03:07:14.729Z,11.50
2018-06-23T03:09:19.382Z,11.50
2018-06-23T03:11:24.172Z,11.60
2018-06-23T03:13:28.905Z,11.60
2018-06-23T03:15:33.661Z,11.50
2018-06-23T03:17:38.311Z,11.50
2018-06-23T03:19:42.983Z,11.40
2018-06-23T03:21:47.700Z,11.50
2018-06-23T03:23:52.352Z,11.50
2018-06-23T03:25:56.990Z,11.50
2018-06-23T03:28:01.668Z,11.40
2018-06-23T03:30:06.314Z,11.40
2018-06-23T03:32:11.582Z,11.30
2018-06-23T03:34:16.249Z,11.30
2018-06-23T03:36:20.952Z,11.40
2018-06-23T03:38:25.619Z,11.40
2018-06-23T03:40:30.309Z,11.40
2018-06-23T03:42:35.070Z,11.40
2018-06-23T03:44:39.720Z,11.40
2018-06-23T03:46:44.350Z,11.50
2018-06-23T03:48:48.969Z,11.50
2018-06-23T03:50:53.642Z,11.60
2018-06-23T03:52:58.305Z,11.60
2018-06-23T03:55:02.912Z,11.50
2018-06-23T03:57:07.957Z,11.50
2018-06-23T03:59:12.703Z,11.50
2018-06-23T04:01:17.361Z,11.40
2018-06-23T04:03:21.996Z,11.40
2018-06-23T04:05:26.724Z,11.30
2018-06-23T04:07:31.409Z,11.20
2018-06-23T04:09:36.026Z,11.30
2018-06-23T04:11:40.857Z,11.40
2018-06-23T04:13:45.503Z,11.40
2018-06-23T04:15:50.217Z,11.50
2018-06-23T04:17:54.918Z,11.40
2018-06-23T04:19:59.539Z,11.50
2018-06-23T04:22:04.142Z,11.50
2018-06-23T04:24:08.864Z,11.50
2018-06-23T04:26:13.654Z,11.50
2018-06-23T04:28:18.317Z,11.50
2018-06-23T04:30:22.977Z,11.40
2018-06-23T04:32:27.639Z,11.60
2018-06-23T04:34:32.314Z,11.50
2018-06-23T04:36:37.039Z,11.60
2018-06-23T04:38:41.768Z,11.70
2018-06-23T04:40:46.429Z,11.70
2018-06-23T04:42:51.112Z,11.70
2018-06-23T04:44:55.806Z,11.80
2018-06-23T04:47:02.185Z,11.80
2018-06-23T04:49:07.104Z,11.90
2018-06-23T04:51:11.747Z,11.80
2018-06-23T04:53:16.772Z,11.80
2018-06-23T04:55:21.775Z,11.90
2018-06-23T04:57:26.442Z,11.90
2018-06-23T04:59:31.372Z,12.00
2018-06-23T05:01:36.298Z,11.90
2018-06-23T05:03:41.060Z,11.90
2018-06-23T05:05:46.406Z,11.90
2018-06-23T05:07:51.339Z,12.00
2018-06-23T05:09:56.140Z,12.00
2018-06-23T05:12:00.839Z,12.00
2018-06-23T05:14:06.032Z,12.10
2018-06-23T05:16:11.029Z,12.20
2018-06-23T05:18:15.693Z,12.30
2018-06-23T05:20:20.436Z,12.30
2018-06-23T05:22:25.047Z,12.20
2018-06-23T05:24:29.648Z,12.20
2018-06-23T05:26:34.329Z,12.30
2018-06-23T05:28:38.988Z,12.10
2018-06-23T05:30:43.695Z,12.10
2018-06-23T05:32:48.471Z,12.10
2018-06-23T05:34:53.300Z,12.00
2018-06-23T05:36:58.241Z,12.00
2018-06-23T05:39:03.791Z,11.90
2018-06-23T05:41:08.564Z,12.20
2018-06-23T05:43:13.732Z,12.50
2018-06-23T05:45:18.878Z,12.40
2018-06-23T05:47:24.678Z,12.30
2018-06-23T05:49:29.677Z,12.10
2018-06-23T05:51:34.421Z,12.30
2018-06-23T05:53:39.060Z,12.20
2018-06-23T05:55:44.595Z,12.20
2018-06-23T05:57:50.126Z,12.10
2018-06-23T05:59:54.851Z,12.20
2018-06-23T06:01:59.732Z,12.10
2018-06-23T06:04:04.494Z,12.20
2018-06-23T06:06:09.279Z,12.30
2018-06-23T06:08:13.940Z,12.40
2018-06-23T06:10:18.730Z,12.40
2018-06-23T06:12:23.487Z,12.70
2018-06-23T06:14:28.448Z,12.70
2018-06-23T06:16:49.657Z,12.60
2018-06-23T06:18:54.531Z,12.60
2018-06-23T06:20:59.139Z,12.50
2018-06-23T06:23:03.827Z,12.50
2018-06-23T06:25:08.974Z,12.60
2018-06-23T06:27:13.695Z,12.50
2018-06-23T06:29:18.362Z,12.60
2018-06-23T06:31:23.123Z,12.60
2018-06-23T06:33:27.808Z,12.60
2018-06-23T06:35:32.632Z,12.70
2018-06-23T06:37:37.442Z,12.80
2018-06-23T06:39:42.278Z,12.70
2018-06-23T06:41:46.966Z,12.60
2018-06-23T06:43:51.617Z,12.60
2018-06-23T06:45:56.341Z,12.70
2018-06-23T06:48:01.092Z,12.70
2018-06-23T06:50:05.996Z,12.60
2018-06-23T06:52:10.907Z,12.50
2018-06-23T06:54:15.978Z,12.30
2018-06-23T06:56:20.786Z,12.30
2018-06-23T06:58:25.636Z,12.30
2018-06-23T07:00:30.842Z,12.30
2018-06-23T07:02:35.538Z,12.40
2018-06-23T07:04:40.273Z,12.40
2018-06-23T07:06:45.017Z,12.40
2018-06-23T07:08:50.048Z,12.30
2018-06-23T07:10:54.804Z,12.30
2018-06-23T07:12:59.536Z,12.40
2018-06-23T07:15:08.952Z,12.80
2018-06-23T07:17:13.778Z,12.80
2018-06-23T07:19:18.445Z,13.00
2018-06-23T07:21:23.236Z,13.10
2018-06-23T07:23:27.951Z,13.10
2018-06-23T07:25:32.630Z,13.30
2018-06-23T07:27:37.674Z,13.60
2018-06-23T07:29:42.806Z,13.50
2018-06-23T07:31:47.718Z,13.80
2018-06-23T07:33:52.504Z,14.00
2018-06-23T07:35:57.204Z,14.10
2018-06-23T07:38:02.029Z,14.10
2018-06-23T07:40:06.805Z,13.80
2018-06-23T07:42:11.527Z,14.00
2018-06-23T07:44:16.187Z,14.20
2018-06-23T07:46:20.883Z,14.20
2018-06-23T07:48:25.621Z,14.30
2018-06-23T07:50:30.449Z,14.20
2018-06-23T07:52:35.097Z,14.30
2018-06-23T07:54:39.790Z,14.50
2018-06-23T07:56:44.646Z,14.60
2018-06-23T07:58:49.304Z,14.70
2018-06-23T08:00:54.470Z,14.80
2018-06-23T08:02:59.320Z,14.80
2018-06-23T08:05:04.548Z,14.80
2018-06-23T08:07:09.329Z,14.70
2018-06-23T08:09:14.206Z,14.80
2018-06-23T08:11:19.188Z,14.90
2018-06-23T08:13:23.981Z,14.90
2018-06-23T08:15:28.793Z,15.10
2018-06-23T08:17:33.556Z,15.10
2018-06-23T08:19:38.244Z,15.10
2018-06-23T08:21:43.137Z,15.30
2018-06-23T08:23:48.018Z,15.30
2018-06-23T08:25:52.756Z,15.20
2018-06-23T08:27:57.495Z,15.30
2018-06-23T08:30:02.289Z,15.10
2018-06-23T08:32:06.946Z,15.00
2018-06-23T08:34:11.727Z,14.80
2018-06-23T08:36:16.463Z,14.70
2018-06-23T08:38:21.269Z,14.60
2018-06-23T08:40:26.176Z,14.60
2018-06-23T08:42:30.902Z,14.90
2018-06-23T08:44:35.570Z,14.90
2018-06-23T08:46:40.395Z,14.70
2018-06-23T08:48:45.127Z,14.70
2018-06-23T08:50:49.858Z,14.90
2018-06-23T08:52:54.579Z,15.00
2018-06-23T08:54:59.313Z,15.50
2018-06-23T08:57:04.173Z,15.50
2018-06-23T08:59:08.879Z,15.30
2018-06-23T09:01:13.680Z,15.40
2018-06-23T09:03:18.509Z,15.30
2018-06-23T09:05:23.279Z,15.20
2018-06-23T09:07:27.958Z,15.30
2018-06-23T09:09:32.752Z,15.30
2018-06-23T09:11:37.583Z,15.20
2018-06-23T09:13:43.362Z,15.00
2018-06-23T09:15:47.938Z,14.90
2018-06-23T09:17:52.809Z,15.00
2018-06-23T09:19:57.864Z,15.00
2018-06-23T09:22:02.667Z,15.00
2018-06-23T09:24:07.408Z,15.00
2018-06-23T09:26:12.063Z,15.00
2018-06-23T09:28:16.706Z,14.80
2018-06-23T09:30:21.394Z,15.00
2018-06-23T09:32:26.222Z,14.90
2018-06-23T09:34:31.114Z,14.90
2018-06-23T09:36:35.701Z,14.80
2018-06-23T09:38:41.617Z,14.90
2018-06-23T09:40:46.407Z,14.90
2018-06-23T09:42:51.589Z,14.90
2018-06-23T09:44:56.293Z,14.80
2018-06-23T09:47:01.066Z,15.00
2018-06-23T09:49:05.954Z,15.20
2018-06-23T09:51:10.806Z,15.30
2018-06-23T09:53:15.520Z,15.30
2018-06-23T09:55:20.262Z,15.40
2018-06-23T09:57:24.985Z,15.30
2018-06-23T09:59:29.708Z,15.30
2018-06-23T10:01:34.570Z,15.50
2018-06-23T10:03:39.275Z,15.60
2018-06-23T10:05:44.089Z,15.60
2018-06-23T10:07:48.737Z,15.60
2018-06-23T10:09:53.455Z,15.60
2018-06-23T10:11:58.126Z,15.60
2018-06-23T10:14:03.479Z,15.60
2018-06-23T10:16:08.694Z,15.70
2018-06-23T10:18:13.603Z,15.80
2018-06-23T10:20:18.527Z,15.90
2018-06-23T10:22:23.446Z,16.00
2018-06-23T10:24:28.224Z,15.90
2018-06-23T10:26:34.305Z,15.80
2018-06-23T10:28:39.031Z,15.50
2018-06-23T10:30:43.875Z,15.40
2018-06-23T10:32:48.615Z,15.30
2018-06-23T10:34:53.286Z,15.30
2018-06-23T10:36:57.901Z,15.20
2018-06-23T10:39:02.876Z,15.40
2018-06-23T10:41:07.684Z,15.30
2018-06-23T10:43:12.349Z,15.60
2018-06-23T10:45:17.043Z,15.60
2018-06-23T10:47:21.664Z,15.70
2018-06-23T10:49:26.496Z,15.60
2018-06-23T10:51:31.200Z,15.70
2018-06-23T10:53:35.895Z,15.90
2018-06-23T10:55:41.084Z,16.00
2018-06-23T10:57:45.981Z,16.20
2018-06-23T10:59:50.938Z,16.10
2018-06-23T11:01:55.761Z,16.10
2018-06-23T11:04:00.454Z,16.30
2018-06-23T11:06:05.223Z,16.20
2018-06-23T11:08:09.901Z,16.10
2018-06-23T11:10:15.029Z,16.10
2018-06-23T11:12:20.599Z,16.20
2018-06-23T11:14:25.290Z,16.00
2018-06-23T11:16:30.325Z,16.10
2018-06-23T11:18:35.698Z,16.10
2018-06-23T11:20:40.681Z,16.30
2018-06-23T11:22:45.678Z,16.50
2018-06-23T11:24:50.290Z,16.30
2018-06-23T11:26:55.074Z,16.00
2018-06-23T11:28:59.819Z,15.70
2018-06-23T11:31:04.732Z,15.50
2018-06-23T11:33:09.406Z,15.40
2018-06-23T11:35:15.271Z,15.40
2018-06-23T11:37:22.895Z,15.50
2018-06-23T11:39:27.792Z,15.60
2018-06-23T11:41:32.534Z,15.50
2018-06-23T11:45:53.784Z,15.50
2018-06-23T11:47:58.467Z,15.30
2018-06-23T11:50:03.217Z,15.30
2018-06-23T11:52:08.227Z,15.30
2018-06-23T11:54:12.886Z,15.30
2018-06-23T11:56:17.703Z,15.40
2018-06-23T11:58:22.818Z,15.40
2018-06-23T12:00:27.597Z,15.50
2018-06-23T12:02:32.530Z,15.70
2018-06-23T12:04:37.418Z,15.80
2018-06-23T12:06:42.353Z,15.90
2018-06-23T12:08:47.218Z,16.00
2018-06-23T12:10:51.908Z,16.00
2018-06-23T12:12:56.650Z,16.10
2018-06-23T12:15:01.417Z,16.10
2018-06-23T12:17:06.246Z,16.20
2018-06-23T12:19:10.972Z,16.30
2018-06-23T12:21:15.588Z,16.10
2018-06-23T12:23:20.295Z,16.20
2018-06-23T12:25:25.074Z,16.20
2018-06-23T12:27:29.840Z,16.40
2018-06-23T12:29:34.614Z,16.40
2018-06-23T12:31:39.293Z,16.40
2018-06-23T12:33:43.952Z,16.60
2018-06-23T12:35:48.582Z,16.70
2018-06-23T12:37:53.231Z,16.80
2018-06-23T12:39:58.022Z,16.80
2018-06-23T12:42:02.790Z,16.90
2018-06-23T12:44:07.926Z,17.10
2018-06-23T12:46:12.591Z,17.00
2018-06-23T12:48:17.243Z,17.10
2018-06-23T12:50:22.478Z,17.20
2018-06-23T12:52:27.497Z,17.00
2018-06-23T12:54:32.122Z,17.10
2018-06-23T12:56:36.833Z,16.90
2018-06-23T12:58:41.485Z,17.00
2018-06-23T13:00:46.763Z,16.90
2018-06-23T13:02:51.569Z,16.80
2018-06-23T13:04:56.770Z,16.90
2018-06-23T13:07:01.430Z,17.10
2018-06-23T13:09:10.508Z,17.30
2018-06-23T13:11:15.184Z,17.00
2018-06-23T13:13:19.907Z,17.00
2018-06-23T13:15:24.664Z,17.20
2018-06-23T13:17:29.467Z,17.40
2018-06-23T13:19:34.411Z,17.50
2018-06-23T13:21:39.027Z,17.30
2018-06-23T13:23:43.686Z,17.30
2018-06-23T13:25:48.423Z,17.40
2018-06-23T13:27:53.237Z,17.60
2018-06-23T13:29:57.868Z,17.70
2018-06-23T13:32:02.532Z,17.70
2018-06-23T13:34:07.197Z,17.60
2018-06-23T13:36:11.876Z,17.50
2018-06-23T13:38:16.603Z,17.40
2018-06-23T13:40:21.407Z,17.50
2018-06-23T13:42:26.158Z,17.40
2018-06-23T13:44:30.800Z,17.30
2018-06-23T13:46:35.657Z,17.60
2018-06-23T13:48:40.382Z,17.70
2018-06-23T13:50:45.482Z,17.70
2018-06-23T13:52:50.263Z,17.70
2018-06-23T13:54:54.918Z,17.60
2018-06-23T13:56:59.561Z,17.60
2018-06-23T13:59:04.296Z,17.70
2018-06-23T14:01:08.966Z,17.50
2018-06-23T14:03:13.819Z,17.70
2018-06-23T14:05:18.579Z,17.90
2018-06-23T14:07:23.515Z,18.10
2018-06-23T14:09:28.234Z,18.20
2018-06-23T14:11:32.905Z,18.20
2018-06-23T14:13:37.672Z,18.20
2018-06-23T14:15:42.296Z,18.30
2018-06-23T14:17:47.140Z,18.50
2018-06-23T14:19:52.021Z,18.70
2018-06-23T14:21:56.830Z,18.60
2018-06-23T14:24:01.715Z,18.50
2018-06-23T14:26:08.355Z,18.50
2018-06-23T14:28:13.296Z,18.80
2018-06-23T14:30:18.057Z,18.70
2018-06-23T14:32:23.058Z,18.90
2018-06-23T14:34:27.833Z,18.80
2018-06-23T14:36:32.525Z,18.90
2018-06-23T14:38:37.151Z,19.10
2018-06-23T14:40:42.641Z,19.10
2018-06-23T14:42:47.534Z,19.20
2018-06-23T14:44:52.328Z,19.20
2018-06-23T14:46:57.085Z,19.30
2018-06-23T14:49:02.067Z,19.60
2018-06-23T14:51:06.720Z,19.70
2018-06-23T14:53:11.389Z,19.80
2018-06-23T14:55:16.103Z,19.80
2018-06-23T14:57:20.957Z,19.50
2018-06-23T14:59:25.648Z,19.40
2018-06-23T15:01:30.293Z,19.70
2018-06-23T15:03:35.078Z,19.60
2018-06-23T15:05:39.752Z,19.40
2018-06-23T15:07:44.468Z,19.20
2018-06-23T15:10:05.810Z,19.20
2018-06-23T15:12:26.911Z,19.20
2018-06-23T15:14:31.658Z,19.20
2018-06-23T15:16:36.524Z,19.20
2018-06-23T15:18:41.484Z,19.20
2018-06-23T15:20:46.514Z,19.30
2018-06-23T15:22:51.234Z,19.40
2018-06-23T15:24:56.001Z,19.50
2018-06-23T15:27:01.017Z,19.40
2018-06-23T15:29:05.930Z,19.20
2018-06-23T15:31:10.793Z,19.30
2018-06-23T15:33:15.937Z,19.40
2018-06-23T15:35:20.688Z,19.60
2018-06-23T15:37:25.686Z,19.50
2018-06-23T15:39:30.993Z,19.60
2018-06-23T15:41:36.615Z,19.60
2018-06-23T15:43:41.289Z,19.50
2018-06-23T15:45:46.047Z,19.30
2018-06-23T15:47:50.813Z,19.20
2018-06-23T15:49:55.622Z,19.20
2018-06-23T15:52:00.684Z,19.00
2018-06-23T15:54:05.826Z,19.00
2018-06-23T15:56:10.563Z,19.00
2018-06-23T15:58:15.650Z,19.00
2018-06-23T16:00:20.590Z,19.00
2018-06-23T16:02:25.400Z,19.00
2018-06-23T16:04:30.332Z,18.90
2018-06-23T16:06:35.087Z,18.90
2018-06-23T16:08:39.876Z,19.00
2018-06-23T16:10:44.754Z,18.90
2018-06-23T16:12:49.493Z,19.00
2018-06-23T16:14:54.441Z,19.00
2018-06-23T16:16:59.190Z,18.90
2018-06-23T16:19:04.039Z,18.90
2018-06-23T16:21:08.822Z,18.80
2018-06-23T16:23:13.709Z,19.00
2018-06-23T16:25:18.402Z,18.80
2018-06-23T16:27:23.049Z,18.80
2018-06-23T16:29:27.848Z,18.90
2018-06-23T16:31:32.558Z,18.90
2018-06-23T16:33:37.220Z,18.90
2018-06-23T16:35:41.881Z,18.90
2018-06-23T16:37:46.524Z,18.90
2018-06-23T16:39:51.244Z,18.80
2018-06-23T16:41:56.163Z,18.80
2018-06-23T16:44:01.046Z,18.80
2018-06-23T16:46:05.797Z,18.90
2018-06-23T16:48:10.627Z,19.00
2018-06-23T16:50:15.405Z,19.30
2018-06-23T16:52:20.166Z,19.60
2018-06-23T16:54:24.962Z,19.80
2018-06-23T16:56:29.879Z,19.60
2018-06-23T17:00:36.377Z,19.60
2018-06-23T17:02:41.090Z,19.50
2018-06-23T17:04:46.648Z,19.50
2018-06-23T17:06:51.354Z,19.60
2018-06-23T17:08:56.150Z,19.80
2018-06-23T17:11:00.913Z,19.90
2018-06-23T17:13:05.675Z,20.10
2018-06-23T17:15:10.553Z,20.10
2018-06-23T17:17:15.231Z,20.20
2018-06-23T17:19:19.983Z,20.20
2018-06-23T17:21:24.851Z,20.00
2018-06-23T17:23:29.802Z,20.00
2018-06-23T17:25:34.858Z,19.90
2018-06-23T17:27:39.481Z,19.70
2018-06-23T17:29:44.200Z,19.60
2018-06-23T17:31:49.074Z,20.00
2018-06-23T17:33:53.758Z,20.10
2018-06-23T17:35:58.524Z,20.20
2018-06-23T17:38:03.321Z,20.10
2018-06-23T17:40:08.156Z,19.90
2018-06-23T17:42:13.068Z,20.30
2018-06-23T17:44:17.793Z,20.60
2018-06-23T17:46:22.508Z,20.70
2018-06-23T17:48:27.645Z,21.00
2018-06-23T17:50:32.329Z,20.90
2018-06-23T17:52:36.953Z,21.00
2018-06-23T17:54:42.317Z,21.00
2018-06-23T17:56:47.122Z,20.90
2018-06-23T17:58:51.808Z,21.10
2018-06-23T18:00:56.453Z,20.90
2018-06-23T18:03:01.238Z,20.90
2018-06-23T18:05:05.969Z,20.70
2018-06-23T18:07:10.987Z,20.50
2018-06-23T18:09:16.052Z,20.40
2018-06-23T18:11:20.759Z,20.20
2018-06-23T18:13:25.501Z,19.90
2018-06-23T18:15:30.171Z,19.90
2018-06-23T18:17:34.865Z,19.70
2018-06-23T18:19:39.503Z,19.60
2018-06-23T18:21:44.186Z,19.40
2018-06-23T18:23:48.945Z,19.20
2018-06-23T18:25:53.660Z,19.20
2018-06-23T18:27:58.375Z,19.00
2018-06-23T18:30:03.763Z,18.80
2018-06-23T18:32:08.443Z,18.70
2018-06-23T18:34:13.213Z,18.70
2018-06-23T18:36:17.823Z,18.50
2018-06-23T18:38:22.505Z,18.50
2018-06-23T18:40:27.299Z,18.60
2018-06-23T18:42:32.006Z,18.60
2018-06-23T18:44:36.694Z,18.50
2018-06-23T18:46:41.434Z,18.40
2018-06-23T18:48:46.366Z,18.40
2018-06-23T18:50:51.025Z,18.20
2018-06-23T18:52:55.878Z,18.20
2018-06-23T18:55:00.545Z,18.10
2018-06-23T18:57:05.313Z,18.00
2018-06-23T18:59:10.083Z,18.00
2018-06-23T19:01:14.894Z,18.00
2018-06-23T19:03:19.670Z,17.80
2018-06-23T19:05:24.418Z,17.70
2018-06-23T19:07:29.176Z,17.60
2018-06-23T19:09:33.980Z,17.80
2018-06-23T19:11:38.927Z,17.80
2018-06-23T19:13:43.565Z,17.80
2018-06-23T19:15:48.274Z,17.70
2018-06-23T19:17:52.991Z,17.60
2018-06-23T19:19:57.640Z,17.50
2018-06-23T19:22:02.337Z,17.40
2018-06-23T19:24:07.305Z,17.40
2018-06-23T19:26:11.979Z,17.40
2018-06-23T19:28:17.015Z,17.40
2018-06-23T19:30:21.939Z,17.30
2018-06-23T19:32:26.781Z,17.20
2018-06-23T19:34:31.524Z,17.20
2018-06-23T19:36:36.437Z,17.40
2018-06-23T19:38:41.238Z,17.30
2018-06-23T19:40:46.354Z,17.20
2018-06-23T19:42:51.149Z,17.20
2018-06-23T19:44:56.025Z,17.20
2018-06-23T19:47:00.725Z,17.10
2018-06-23T19:49:05.374Z,17.10
2018-06-23T19:51:10.022Z,17.10
2018-06-23T19:53:14.756Z,17.30
2018-06-23T19:55:19.517Z,17.20
2018-06-23T19:57:24.335Z,17.10
2018-06-23T19:59:28.993Z,17.10
2018-06-23T20:01:34.118Z,17.00
2018-06-23T20:03:38.986Z,17.10
2018-06-23T20:05:43.680Z,17.20
2018-06-23T20:07:48.286Z,17.10
2018-06-23T20:09:52.971Z,17.20
2018-06-23T20:11:57.654Z,17.10
2018-06-23T20:14:02.395Z,17.00
2018-06-23T20:16:07.091Z,17.00
2018-06-23T20:18:11.731Z,17.00
2018-06-23T20:20:16.426Z,17.00
2018-06-23T20:22:21.112Z,17.00
2018-06-23T20:24:25.951Z,16.90
2018-06-23T20:26:30.753Z,16.90
2018-06-23T20:28:35.494Z,16.90
2018-06-23T20:30:40.331Z,17.00
2018-06-23T20:32:44.969Z,17.10
2018-06-23T20:34:49.640Z,17.00
2018-06-23T20:36:54.873Z,17.00
2018-06-23T20:38:59.693Z,16.90
2018-06-23T20:41:04.482Z,17.00
2018-06-23T20:43:09.455Z,17.00
2018-06-23T20:45:14.281Z,17.00
2018-06-23T20:47:19.313Z,17.10
2018-06-23T20:49:23.977Z,17.10
2018-06-23T20:51:28.728Z,17.00
2018-06-23T20:53:33.550Z,17.00
2018-06-23T20:55:38.381Z,17.00
2018-06-23T20:57:43.168Z,17.00
2018-06-23T20:59:47.826Z,17.00
2018-06-23T21:01:52.539Z,17.10
2018-06-23T21:03:57.378Z,17.40
2018-06-23T21:06:02.160Z,17.40
2018-06-23T21:08:07.119Z,17.30
2018-06-23T21:10:27.208Z,17.20
2018-06-23T21:12:32.037Z,17.20
2018-06-23T21:14:36.792Z,17.20
2018-06-23T21:16:41.681Z,17.10
2018-06-23T21:18:46.402Z,17.00
2018-06-23T21:20:51.232Z,17.00
2018-06-23T21:22:55.999Z,17.10
2018-06-23T21:25:01.149Z,17.20
2018-06-23T21:27:06.242Z,17.10
2018-06-23T21:29:11.282Z,17.00
2018-06-23T21:31:16.326Z,17.00
2018-06-23T21:33:21.302Z,16.90
2018-06-23T21:35:26.483Z,16.90
2018-06-23T21:37:31.276Z,16.90
2018-06-23T21:39:36.138Z,17.10
2018-06-23T21:41:40.860Z,17.10
2018-06-23T21:43:45.792Z,17.00
2018-06-23T21:45:50.502Z,17.10
2018-06-23T21:47:55.216Z,17.20
2018-06-23T21:49:59.911Z,17.10
2018-06-23T21:52:04.695Z,17.20
2018-06-23T21:54:09.516Z,17.20
2018-06-23T21:56:14.453Z,17.20
2018-06-23T21:58:19.269Z,17.10
2018-06-23T22:00:38.052Z,17.00
2018-06-23T22:02:42.801Z,16.90
2018-06-23T22:04:47.552Z,16.80
2018-06-23T22:06:52.286Z,16.80
2018-06-23T22:08:57.119Z,16.80
2018-06-23T22:11:01.923Z,16.80
2018-06-23T22:13:06.927Z,16.80
2018-06-23T22:15:11.812Z,16.80
2018-06-23T22:17:16.636Z,16.80
2018-06-23T22:19:21.541Z,16.80
2018-06-23T22:21:26.395Z,16.80
2018-06-23T22:23:31.139Z,16.90
2018-06-23T22:25:36.171Z,17.00
2018-06-23T22:27:41.156Z,17.10
2018-06-23T22:29:45.946Z,17.10
2018-06-23T22:31:50.817Z,17.00
2018-06-23T22:33:55.613Z,16.90
2018-06-23T22:36:00.446Z,16.80
2018-06-23T22:38:05.399Z,16.90
2018-06-23T22:40:10.628Z,16.80
2018-06-23T22:42:15.591Z,16.80
2018-06-23T22:44:20.718Z,16.80
2018-06-23T22:49:10.163Z,16.90
2018-06-23T22:51:14.940Z,16.80
2018-06-23T22:53:19.665Z,16.80
2018-06-23T22:55:24.417Z,17.00
2018-06-23T22:57:29.116Z,16.90
2018-06-23T22:59:33.794Z,16.90
2018-06-23T23:01:38.476Z,16.80
2018-06-23T23:03:43.512Z,16.80
2018-06-23T23:05:48.430Z,16.80
2018-06-23T23:07:53.236Z,16.70
2018-06-23T23:09:58.273Z,16.90
2018-06-23T23:12:04.458Z,16.70
2018-06-23T23:14:09.246Z,16.70
2018-06-23T23:16:14.014Z,16.60
2018-06-23T23:18:18.814Z,16.50
2018-06-23T23:20:23.611Z,16.50
2018-06-23T23:22:28.537Z,16.50
2018-06-23T23:24:33.369Z,16.50
2018-06-23T23:26:38.192Z,16.40
2018-06-23T23:28:42.969Z,16.30
2018-06-23T23:30:47.696Z,16.30
2018-06-23T23:32:52.509Z,16.30
2018-06-23T23:34:57.325Z,16.10
2018-06-23T23:37:02.099Z,16.20
2018-06-23T23:39:09.745Z,16.10
2018-06-23T23:41:14.645Z,16.10
2018-06-23T23:43:19.324Z,16.10
2018-06-23T23:45:24.236Z,16.00
2018-06-23T23:47:29.056Z,16.00
2018-06-23T23:49:33.790Z,15.90
2018-06-23T23:51:38.543Z,15.90
2018-06-23T23:53:43.375Z,15.90
2018-06-23T23:55:48.224Z,15.90
2018-06-23T23:57:53.037Z,15.90
2018-06-23T23:59:57.942Z,15.80
